Time;durP1;ratioP1;P1;durP2;ratioP2;P2;SDS_P1;SDS_P2;PMS_P1;PMS_P2;Temp;Humidity;BMP_temperature;BMP_pressure;BME280_temperature;BME280_humidity;BME280_pressure;Samples;Min_cycle;Max_cycle;Signal;HPM_P1;HPM_P2
2022/06/20 04:01:08;;;;;;;13.40;8.90;;;20.00;99.90;;;;;;5766619;23;20046;-73
2022/06/20 04:03:36;;;;;;;13.15;9.60;;;20.00;99.90;;;;;;5013884;28;20147;-73
2022/06/20 04:06:13;;;;;;;17.65;9.35;;;20.10;99.90;;;;;;5015106;28;20037;-73
2022/06/20 04:11:35;;;;;;;18.27;8.73;;;20.20;99.90;;;;;;5015451;28;20022;-73
2022/06/20 04:14:22;;;;;;;16.52;8.90;;;20.30;99.90;;;;;;5015578;28;20041;-76
2022/06/20 04:16:53;;;;;;;14.25;8.48;;;20.40;99.90;;;;;;5015406;28;20034;-73
2022/06/20 04:19:27;;;;;;;17.92;9.48;;;20.40;99.90;;;;;;5014082;28;20034;-73
2022/06/20 04:22:10;;;;;;;14.45;8.80;;;20.50;99.90;;;;;;5014996;28;20466;-73
2022/06/20 04:24:51;;;;;;;18.00;9.32;;;20.50;99.90;;;;;;5015139;28;20042;-74
2022/06/20 04:27:28;;;;;;;16.23;9.00;;;20.50;99.90;;;;;;5014883;28;20038;-73
2022/06/20 04:30:01;;;;;;;14.02;8.68;;;20.50;99.90;;;;;;5015007;28;20042;-73
2022/06/20 04:32:50;;;;;;;21.38;9.10;;;20.50;99.90;;;;;;5014638;28;20142;-74
2022/06/20 04:35:29;;;;;;;12.15;7.95;;;20.60;99.90;;;;;;5014833;28;20432;-73
2022/06/20 04:38:20;;;;;;;14.93;8.23;;;20.60;99.90;;;;;;5013382;28;20125;-73
2022/06/20 04:40:59;;;;;;;16.70;8.70;;;20.60;99.90;;;;;;5014437;28;20046;-74
2022/06/20 04:43:52;;;;;;;17.63;8.60;;;20.70;99.90;;;;;;5015092;28;20038;-73
2022/06/20 04:46:31;;;;;;;15.63;7.78;;;20.70;99.90;;;;;;5014790;28;20117;-75
2022/06/20 04:48:59;;;;;;;15.88;8.38;;;20.70;99.90;;;;;;5014418;28;20046;-73
2022/06/20 04:51:39;;;;;;;15.57;8.57;;;20.70;99.90;;;;;;5014711;28;20058;-73
2022/06/20 04:54:08;;;;;;;12.60;8.23;;;20.80;99.90;;;;;;5015071;28;20058;-73
2022/06/20 04:56:35;;;;;;;17.65;8.05;;;21.00;99.90;;;;;;5014402;28;20385;-73
2022/06/20 04:59:03;;;;;;;20.88;8.70;;;21.10;99.90;;;;;;5014570;28;20046;-73
2022/06/20 05:01:32;;;;;;;14.63;8.00;;;21.40;99.90;;;;;;5014073;28;20045;-74
2022/06/20 05:04:22;;;;;;;17.80;9.65;;;21.50;99.90;;;;;;5014743;28;20035;-73
2022/06/20 05:06:48;;;;;;;16.02;8.05;;;21.60;99.90;;;;;;5012953;28;20471;-73
2022/06/20 05:09:26;;;;;;;17.02;8.10;;;21.70;99.90;;;;;;5012985;28;20042;-73
2022/06/20 05:12:05;;;;;;;18.88;8.80;;;21.70;99.90;;;;;;5012733;28;20511;-73
2022/06/20 05:14:38;;;;;;;14.90;8.25;;;21.80;99.90;;;;;;5013015;28;20034;-73
2022/06/20 05:17:09;;;;;;;14.13;8.48;;;21.80;99.90;;;;;;5014423;28;20373;-74
2022/06/20 05:19:44;;;;;;;19.55;7.65;;;21.90;99.90;;;;;;5014891;28;20073;-73
2022/06/20 05:22:20;;;;;;;13.93;6.97;;;21.90;99.90;;;;;;5013766;28;20023;-76
2022/06/20 05:24:48;;;;;;;13.02;7.25;;;22.00;99.90;;;;;;5014161;28;20038;-74
2022/06/20 05:27:25;;;;;;;21.92;7.53;;;22.10;99.90;;;;;;5012976;28;20460;-76
2022/06/20 05:29:54;;;;;;;13.38;6.93;;;22.20;99.90;;;;;;5013402;28;20102;-74
2022/06/20 05:32:45;;;;;;;12.55;6.78;;;22.30;99.90;;;;;;5013835;28;20034;-74
2022/06/20 05:35:23;;;;;;;13.93;6.53;;;22.30;99.90;;;;;;5014235;28;20041;-75
2022/06/20 05:37:51;;;;;;;16.40;6.15;;;22.30;99.90;;;;;;5014317;28;20100;-73
2022/06/20 05:40:24;;;;;;;13.68;6.57;;;22.20;99.90;;;;;;5014201;28;20031;-74
2022/06/20 05:42:50;;;;;;;11.45;5.60;;;22.20;99.90;;;;;;5012396;28;20038;-74
2022/06/20 05:45:20;;;;;;;12.85;6.78;;;22.10;99.90;;;;;;5014161;28;20030;-74
2022/06/20 05:47:50;;;;;;;13.57;6.53;;;22.10;99.90;;;;;;5012222;28;20127;-74
2022/06/20 05:50:46;;;;;;;15.50;6.40;;;22.10;99.90;;;;;;5013690;28;20085;-74
2022/06/20 05:53:24;;;;;;;15.73;7.38;;;22.10;99.90;;;;;;5011974;28;20066;-74
2022/06/20 05:55:50;;;;;;;17.48;6.80;;;22.10;99.90;;;;;;5014297;28;20086;-74
2022/06/20 05:58:25;;;;;;;10.02;6.72;;;21.90;99.90;;;;;;5015542;28;20057;-77
2022/06/20 06:00:53;;;;;;;14.32;7.43;;;22.10;99.90;;;;;;5017142;28;20034;-74
2022/06/20 06:03:29;;;;;;;14.25;7.07;;;22.00;99.90;;;;;;5015929;28;20038;-74
2022/06/20 06:06:01;;;;;;;9.70;6.60;;;22.10;99.90;;;;;;5017342;28;20855;-77
2022/06/20 06:08:42;;;;;;;16.38;7.15;;;22.40;99.90;;;;;;5017161;28;20049;-76
2022/06/20 06:11:17;;;;;;;12.13;6.10;;;22.60;99.90;;;;;;5014689;28;20553;-74
2022/06/20 06:13:52;;;;;;;16.83;6.65;;;22.80;99.90;;;;;;5015576;28;20500;-76
2022/06/20 06:19:41;;;;;;;14.82;6.22;;;22.90;99.90;;;;;;5012971;28;20526;-74
2022/06/20 06:22:13;;;;;;;14.00;6.57;;;22.80;99.90;;;;;;5015508;28;20031;-83
2022/06/20 06:24:42;;;;;;;12.60;6.20;;;22.80;99.90;;;;;;5016180;28;20038;-73
2022/06/20 06:27:12;;;;;;;13.23;6.22;;;22.80;99.90;;;;;;5016148;28;20101;-75
2022/06/20 06:29:46;;;;;;;14.85;6.63;;;22.80;99.90;;;;;;5015610;28;20571;-76
2022/06/20 06:32:16;;;;;;;11.80;5.93;;;22.90;99.90;;;;;;5015020;28;20069;-72
2022/06/20 06:35:03;;;;;;;13.13;5.82;;;22.90;99.90;;;;;;5015692;28;20069;-73
2022/06/20 06:37:39;;;;;;;16.73;6.65;;;22.90;99.90;;;;;;5016260;28;20561;-73
2022/06/20 06:40:24;;;;;;;13.60;6.40;;;22.80;99.90;;;;;;5013925;28;20082;-75
2022/06/20 06:42:54;;;;;;;15.82;6.90;;;22.80;99.90;;;;;;5010378;28;20026;-75
2022/06/20 06:45:24;;;;;;;14.82;6.65;;;22.80;99.90;;;;;;5026974;28;20065;-76
2022/06/20 06:48:18;;;;;;;14.05;6.50;;;23.00;99.90;;;;;;5016672;28;20069;-74
2022/06/20 06:50:48;;;;;;;13.32;6.60;;;23.10;99.90;;;;;;5017062;28;20567;-76
2022/06/20 06:53:27;;;;;;;9.90;6.15;;;23.20;99.90;;;;;;5008592;28;20102;-73
2022/06/20 06:56:03;;;;;;;14.52;7.28;;;23.30;99.90;;;;;;5008579;28;20023;-74
2022/06/20 06:58:39;;;;;;;17.00;6.50;;;23.40;99.90;;;;;;5005059;28;20194;-75
2022/06/20 07:01:29;;;;;;;11.18;6.47;;;23.60;99.90;;;;;;5008592;28;20034;-75
2022/06/20 07:04:16;;;;;;;19.17;7.18;;;23.50;99.90;;;;;;5006329;28;20060;-73
2022/06/20 07:06:50;;;;;;;16.42;7.10;;;23.20;99.90;;;;;;5004681;28;20027;-73
2022/06/20 07:09:25;;;;;;;14.02;6.82;;;23.10;99.90;;;;;;5013689;28;20492;-73
2022/06/20 07:12:04;;;;;;;14.00;7.05;;;23.20;99.90;;;;;;5025649;28;20113;-73
2022/06/20 07:14:35;;;;;;;15.10;7.30;;;23.20;99.90;;;;;;5020609;28;20042;-74
2022/06/20 07:17:24;;;;;;;13.88;7.18;;;23.30;99.90;;;;;;5028872;28;20448;-73
2022/06/20 07:19:51;;;;;;;14.07;7.32;;;23.50;99.90;;;;;;5005657;28;20042;-76
2022/06/20 07:22:19;;;;;;;12.38;6.57;;;23.60;99.90;;;;;;5008549;28;20036;-73
2022/06/20 07:24:46;;;;;;;14.90;7.28;;;23.70;99.90;;;;;;5009889;28;20037;-73
2022/06/20 07:27:32;;;;;;;11.35;6.65;;;24.00;99.30;;;;;;5008621;28;20503;-73
2022/06/20 07:30:08;;;;;;;9.85;6.50;;;24.20;98.30;;;;;;5007217;28;20042;-75
2022/06/20 07:32:40;;;;;;;17.35;7.50;;;24.50;97.40;;;;;;5016189;28;20490;-76
2022/06/20 07:35:13;;;;;;;14.45;6.13;;;24.30;96.60;;;;;;5013852;28;20046;-74
2022/06/20 07:37:49;;;;;;;15.85;6.10;;;24.30;96.20;;;;;;5022810;28;20076;-74
2022/06/20 07:40:26;;;;;;;16.98;6.22;;;24.40;95.80;;;;;;4994255;28;20043;-75
2022/06/20 07:43:04;;;;;;;16.90;6.47;;;24.50;95.40;;;;;;4999902;28;20038;-73
2022/06/20 07:45:38;;;;;;;12.55;6.35;;;24.50;94.40;;;;;;5003449;28;20050;-73
2022/06/20 07:48:16;;;;;;;15.77;6.38;;;24.40;94.50;;;;;;5009571;28;20046;-81
2022/06/20 07:50:59;;;;;;;15.63;5.80;;;24.50;94.90;;;;;;5006785;28;20038;-72
2022/06/20 07:53:34;;;;;;;16.98;6.55;;;24.70;95.20;;;;;;5008327;28;20158;-72
2022/06/20 07:56:09;;;;;;;14.50;6.30;;;24.90;95.00;;;;;;5006765;28;20475;-76
2022/06/20 07:58:39;;;;;;;8.65;5.68;;;24.80;95.50;;;;;;5010312;28;20101;-72
2022/06/20 08:01:14;;;;;;;15.55;6.22;;;24.90;94.80;;;;;;5012211;28;20038;-72
2022/06/20 08:03:47;;;;;;;8.43;5.57;;;24.80;95.40;;;;;;5010681;28;20038;-72
2022/06/20 08:06:19;;;;;;;13.95;5.68;;;24.90;95.00;;;;;;5013083;28;20030;-72
2022/06/20 08:08:54;;;;;;;13.80;5.72;;;25.10;94.70;;;;;;5008031;28;20042;-74
2022/06/20 08:11:41;;;;;;;11.55;5.60;;;25.40;94.10;;;;;;5008532;28;20488;-72
2022/06/20 08:14:30;;;;;;;16.42;5.40;;;25.80;93.50;;;;;;5008737;28;20049;-80
2022/06/20 08:17:03;;;;;;;14.65;5.35;;;26.10;93.10;;;;;;5001504;28;20047;-73
2022/06/20 08:19:30;;;;;;;10.25;5.35;;;26.30;91.80;;;;;;5005711;28;20037;-72
2022/06/20 08:22:21;;;;;;;12.63;6.03;;;26.40;92.00;;;;;;5008214;28;20145;-71
2022/06/20 08:24:59;;;;;;;16.38;6.18;;;26.40;91.30;;;;;;5005134;28;20126;-74
2022/06/20 08:27:42;;;;;;;8.98;5.32;;;26.40;91.50;;;;;;5006779;28;20050;-72
2022/06/20 08:30:14;;;;;;;10.20;5.22;;;26.60;91.50;;;;;;5006076;28;20705;-71
2022/06/20 08:32:55;;;;;;;12.18;5.50;;;27.00;90.60;;;;;;5007154;28;20038;-73
2022/06/20 08:35:30;;;;;;;11.65;5.55;;;27.20;90.80;;;;;;5001698;28;20038;-73
2022/06/20 08:38:05;;;;;;;12.55;5.43;;;27.10;90.30;;;;;;5001157;28;20536;-72
2022/06/20 08:40:50;;;;;;;10.07;5.00;;;27.30;90.50;;;;;;4999225;28;20026;-83
2022/06/20 08:43:38;;;;;;;9.93;4.95;;;27.50;88.10;;;;;;5006430;28;20034;-79
2022/06/20 08:46:04;;;;;;;9.35;4.82;;;27.80;88.00;;;;;;4996998;28;20129;-74
2022/06/20 08:48:48;;;;;;;15.35;5.70;;;27.90;86.40;;;;;;4984909;28;20508;-75
2022/06/20 08:51:29;;;;;;;14.35;5.45;;;28.00;84.80;;;;;;4987629;28;20535;-74
2022/06/20 08:54:21;;;;;;;12.52;5.35;;;27.50;86.80;;;;;;4987027;28;20035;-72
2022/06/20 08:57:11;;;;;;;15.57;4.93;;;27.70;86.60;;;;;;4988539;28;20042;-73
2022/06/20 08:59:59;;;;;;;7.40;4.50;;;28.20;83.70;;;;;;4987878;28;20031;-72
2022/06/20 09:02:52;;;;;;;10.02;4.90;;;28.50;80.20;;;;;;4986382;28;20453;-72
2022/06/20 09:05:45;;;;;;;9.02;4.53;;;28.80;80.30;;;;;;4987464;28;20031;-75
2022/06/20 09:08:25;;;;;;;9.63;4.47;;;29.60;76.60;;;;;;4984000;28;20098;-72
2022/06/20 09:11:06;;;;;;;7.55;4.72;;;29.70;77.50;;;;;;4986718;28;20031;-78
2022/06/20 09:14:07;;;;;;;14.57;4.47;;;29.60;78.20;;;;;;4985372;28;20089;-72
2022/06/20 09:16:43;;;;;;;13.50;4.93;;;29.20;77.10;;;;;;4983380;28;20031;-80
2022/06/20 09:19:36;;;;;;;10.35;4.45;;;28.90;78.10;;;;;;4986832;28;20347;-79
2022/06/20 09:22:11;;;;;;;9.82;5.30;;;28.20;80.00;;;;;;4984955;28;20031;-73
2022/06/20 09:25:00;;;;;;;8.05;4.28;;;27.90;81.20;;;;;;4988962;28;20449;-74
2022/06/20 09:27:48;;;;;;;11.70;4.60;;;27.80;82.10;;;;;;5002899;28;20065;-73
2022/06/20 09:30:18;;;;;;;9.85;4.32;;;27.80;79.40;;;;;;5007026;28;20042;-73
2022/06/20 09:33:09;;;;;;;13.27;4.60;;;27.50;79.50;;;;;;5010893;28;20030;-73
2022/06/20 09:35:54;;;;;;;9.52;4.78;;;27.40;80.10;;;;;;5015376;28;20487;-73
2022/06/20 09:38:35;;;;;;;10.60;4.00;;;27.40;82.10;;;;;;5029154;28;20034;-73
2022/06/20 09:41:36;;;;;;;15.13;4.43;;;27.40;83.20;;;;;;5029805;28;21407;-80
2022/06/20 09:44:40;;;;;;;10.48;4.60;;;27.60;80.30;;;;;;5028849;28;20403;-74
2022/06/20 09:47:28;;;;;;;12.30;4.20;;;27.80;79.60;;;;;;4986338;28;20497;-72
2022/06/20 09:50:14;;;;;;;12.18;3.97;;;27.80;79.40;;;;;;5028439;28;20049;-73
2022/06/20 09:52:55;;;;;;;8.90;4.00;;;27.90;78.50;;;;;;5022697;28;20031;-73
2022/06/20 09:55:44;;;;;;;9.23;4.22;;;27.90;78.50;;;;;;5013193;28;20137;-76
2022/06/20 09:58:43;;;;;;;10.48;4.45;;;28.30;78.60;;;;;;5004380;28;20042;-75
2022/06/20 10:01:16;;;;;;;8.77;4.38;;;28.50;77.10;;;;;;5014797;28;20109;-75
2022/06/20 10:03:57;;;;;;;9.70;4.47;;;28.50;77.40;;;;;;5029992;28;20065;-74
2022/06/20 10:06:37;;;;;;;9.77;4.93;;;28.00;77.70;;;;;;5014444;28;20058;-73
2022/06/20 10:09:18;;;;;;;9.38;4.93;;;27.90;77.80;;;;;;5024636;28;20042;-74
2022/06/20 10:12:08;;;;;;;13.55;5.00;;;28.10;79.00;;;;;;5013190;28;20856;-73
2022/06/20 10:15:05;;;;;;;15.68;5.43;;;28.40;79.60;;;;;;5000646;28;20030;-75
2022/06/20 10:17:36;;;;;;;10.75;5.10;;;28.70;76.90;;;;;;5008928;28;20035;-73
2022/06/20 10:20:05;;;;;;;11.05;5.18;;;28.90;76.70;;;;;;5008072;28;20065;-74
2022/06/20 10:22:52;;;;;;;11.65;4.70;;;28.70;74.90;;;;;;5012159;28;20040;-73
2022/06/20 10:25:39;;;;;;;10.52;4.72;;;28.70;74.40;;;;;;5017387;28;20034;-73
2022/06/20 10:28:15;;;;;;;10.45;4.85;;;29.10;74.50;;;;;;5024874;28;20488;-74
2022/06/20 10:30:48;;;;;;;11.90;5.28;;;29.50;74.40;;;;;;5007191;28;20064;-74
2022/06/20 10:33:42;;;;;;;10.02;4.72;;;29.50;74.50;;;;;;5006020;28;20077;-74
2022/06/20 10:36:17;;;;;;;9.02;5.05;;;29.70;75.20;;;;;;5000628;28;20504;-76
2022/06/20 10:39:05;;;;;;;10.35;4.60;;;30.10;72.10;;;;;;4997673;28;20038;-74
2022/06/20 10:41:49;;;;;;;10.32;5.00;;;30.60;71.80;;;;;;5008300;28;20037;-74
2022/06/20 10:44:38;;;;;;;8.18;4.18;;;31.10;69.70;;;;;;5007760;28;20053;-74
2022/06/20 10:47:12;;;;;;;8.20;4.40;;;31.00;68.20;;;;;;4999311;28;20475;-74
2022/06/20 10:49:56;;;;;;;10.52;4.30;;;30.70;69.60;;;;;;5003549;28;20070;-74
2022/06/20 10:53:00;;;;;;;7.60;4.82;;;30.60;69.80;;;;;;4998671;28;20038;-75
2022/06/20 10:55:45;;;;;;;12.20;4.45;;;30.00;70.20;;;;;;5006376;28;20215;-73
2022/06/20 10:58:39;;;;;;;11.07;4.50;;;29.20;71.70;;;;;;4998780;28;20034;-73
2022/06/20 11:01:33;;;;;;;9.80;3.80;;;28.30;73.90;;;;;;4998563;28;20034;-75
2022/06/20 11:04:28;;;;;;;11.25;3.30;;;27.40;76.70;;;;;;4997423;28;20061;-74
2022/06/20 11:07:06;;;;;;;9.55;4.00;;;27.00;77.00;;;;;;4995578;28;20050;-73
2022/06/20 11:09:53;;;;;;;8.18;3.80;;;27.00;77.20;;;;;;5026844;28;20034;-73
2022/06/20 11:12:40;;;;;;;8.02;3.72;;;27.00;78.80;;;;;;5003624;28;20035;-74
2022/06/20 11:15:12;;;;;;;12.80;3.50;;;27.30;76.60;;;;;;5018551;28;20192;-72
2022/06/20 11:18:07;;;;;;;8.73;3.15;;;27.40;76.70;;;;;;5023012;28;20034;-77
2022/06/20 11:20:39;;;;;;;11.35;3.40;;;27.20;76.60;;;;;;5018537;28;20046;-75
2022/06/20 11:23:19;;;;;;;8.77;3.08;;;27.10;76.80;;;;;;5022698;28;20519;-75
2022/06/20 11:26:00;;;;;;;12.43;3.25;;;26.90;77.50;;;;;;5025277;28;20030;-75
2022/06/20 11:29:09;;;;;;;8.30;3.30;;;27.10;77.10;;;;;;5015143;28;20034;-76
2022/06/20 11:31:52;;;;;;;7.68;3.00;;;26.80;78.20;;;;;;4992880;28;20837;-74
2022/06/20 11:34:41;;;;;;;5.97;2.90;;;26.70;78.50;;;;;;5029873;28;20475;-77
2022/06/20 11:37:22;;;;;;;12.18;3.63;;;26.80;77.90;;;;;;4999949;28;20037;-73
2022/06/20 11:40:15;;;;;;;8.52;3.08;;;26.80;79.20;;;;;;5003145;28;20587;-75
2022/06/20 11:42:58;;;;;;;8.20;3.40;;;27.00;79.40;;;;;;5001598;28;20038;-74
2022/06/20 11:46:02;;;;;;;7.30;3.03;;;27.00;79.30;;;;;;4997495;28;20035;-74
2022/06/20 11:48:33;;;;;;;7.43;3.05;;;27.30;78.30;;;;;;4991681;28;20122;-74
2022/06/20 11:51:23;;;;;;;7.22;3.17;;;27.00;78.10;;;;;;5006821;28;20033;-76
2022/06/20 11:54:19;;;;;;;7.80;2.97;;;26.90;80.00;;;;;;4997474;28;20117;-74
2022/06/20 11:57:13;;;;;;;7.32;2.80;;;26.80;79.70;;;;;;5003715;28;20034;-74
2022/06/20 11:59:50;;;;;;;7.18;3.47;;;26.50;80.10;;;;;;5005346;28;20643;-73
2022/06/20 12:02:34;;;;;;;7.07;3.13;;;26.60;79.90;;;;;;4999238;28;20026;-74
2022/06/20 12:05:18;;;;;;;6.80;3.15;;;26.60;80.00;;;;;;5004732;28;20121;-74
2022/06/20 12:07:50;;;;;;;6.97;3.00;;;26.50;78.90;;;;;;5001636;28;20050;-73
2022/06/20 12:10:38;;;;;;;6.72;2.90;;;26.40;78.40;;;;;;4997325;28;20037;-73
2022/06/20 12:13:07;;;;;;;7.05;2.90;;;26.40;79.00;;;;;;5002294;28;20446;-73
2022/06/20 12:16:05;;;;;;;8.68;3.05;;;26.30;80.10;;;;;;4995129;28;20038;-74
2022/06/20 12:24:22;;;;;;;7.47;3.20;;;25.70;82.50;;;;;;5018397;28;20046;-73
2022/06/20 12:26:49;;;;;;;6.68;2.90;;;25.80;82.30;;;;;;5003533;28;20090;-74
2022/06/20 12:29:24;;;;;;;5.28;3.13;;;25.80;82.50;;;;;;5006659;28;20121;-74
2022/06/20 12:31:54;;;;;;;6.28;2.97;;;25.80;81.50;;;;;;5004275;28;20412;-74
2022/06/20 12:34:56;;;;;;;7.13;3.45;;;25.70;83.20;;;;;;4995360;28;20116;-74
2022/06/20 12:37:29;;;;;;;9.05;2.95;;;25.50;83.80;;;;;;5006204;28;20093;-73
2022/06/20 12:40:11;;;;;;;7.47;3.40;;;25.10;85.10;;;;;;5025194;28;20500;-74
2022/06/20 12:42:43;;;;;;;9.02;3.40;;;24.90;86.90;;;;;;4996710;28;20034;-76
2022/06/20 12:45:27;;;;;;;8.00;3.45;;;25.00;87.50;;;;;;4997648;28;20066;-75
2022/06/20 12:48:08;;;;;;;5.25;3.33;;;24.80;87.10;;;;;;5004269;28;20125;-74
2022/06/20 12:50:47;;;;;;;9.38;3.20;;;24.50;88.60;;;;;;5004057;28;20500;-73
2022/06/20 12:53:26;;;;;;;5.22;3.13;;;24.30;89.30;;;;;;5004250;28;20042;-73
2022/06/20 12:56:00;;;;;;;5.95;2.85;;;24.20;89.70;;;;;;5004676;28;20102;-74
2022/06/20 12:59:00;;;;;;;5.20;3.25;;;24.30;90.10;;;;;;4999172;28;20046;-73
2022/06/20 13:01:46;;;;;;;7.13;3.50;;;24.30;89.70;;;;;;5000910;28;20038;-73
2022/06/20 13:04:48;;;;;;;8.15;3.50;;;24.20;90.50;;;;;;5003984;28;20034;-74
2022/06/20 13:07:25;;;;;;;6.32;3.40;;;23.90;90.40;;;;;;4999412;28;20038;-73
2022/06/20 13:10:22;;;;;;;5.47;3.40;;;23.90;91.00;;;;;;5001975;28;20531;-73
2022/06/20 13:13:12;;;;;;;8.48;3.65;;;23.70;91.00;;;;;;5003780;28;20031;-74
2022/06/20 13:15:52;;;;;;;9.88;3.33;;;23.60;91.20;;;;;;5011650;28;20547;-74
2022/06/20 13:18:25;;;;;;;9.75;3.50;;;23.60;90.90;;;;;;5006562;28;20038;-74
2022/06/20 13:21:03;;;;;;;11.82;3.80;;;23.50;91.10;;;;;;5016393;28;20037;-74
2022/06/20 13:23:50;;;;;;;10.13;3.58;;;23.80;91.20;;;;;;5026628;28;20022;-74
2022/06/20 13:26:43;;;;;;;19.00;3.75;;;23.90;91.10;;;;;;5011334;28;20129;-76
2022/06/20 13:29:56;;;;;;;6.90;2.97;;;24.50;91.50;;;;;;5006318;28;20046;-74
2022/06/20 13:32:47;;;;;;;5.85;3.03;;;25.00;89.20;;;;;;4965177;28;20071;-74
2022/06/20 13:35:35;;;;;;;6.32;2.90;;;25.20;89.70;;;;;;4997753;28;20030;-75
2022/06/20 13:38:22;;;;;;;5.82;3.03;;;25.30;89.20;;;;;;5004426;28;20027;-75
2022/06/20 13:40:58;;;;;;;8.90;3.75;;;25.30;86.80;;;;;;5018217;28;20089;-74
2022/06/20 13:43:27;;;;;;;8.23;3.40;;;25.20;87.40;;;;;;5013146;28;20069;-74
2022/06/20 13:45:59;;;;;;;5.75;3.30;;;25.30;87.10;;;;;;4997814;28;20433;-73
2022/06/20 13:48:38;;;;;;;3.35;3.00;;;25.00;87.90;;;;;;4999145;28;20074;-74
2022/06/20 13:51:36;;;;;;;6.38;3.00;;;24.70;89.70;;;;;;4997209;28;20586;-74
2022/06/20 13:54:27;;;;;;;5.65;2.97;;;24.80;89.60;;;;;;4999352;28;20109;-73
2022/06/20 13:56:52;;;;;;;4.95;2.90;;;25.00;89.00;;;;;;5001162;28;20026;-73
2022/06/20 13:59:50;;;;;;;6.88;3.40;;;25.50;87.80;;;;;;4994351;28;20425;-74
2022/06/20 14:02:41;;;;;;;3.58;2.78;;;26.10;86.20;;;;;;4994843;28;21912;-75
2022/06/20 14:05:15;;;;;;;3.95;3.15;;;26.90;82.80;;;;;;4999826;28;20073;-74
2022/06/20 14:07:42;;;;;;;4.75;3.15;;;27.00;84.10;;;;;;4998798;28;20087;-74
2022/06/20 14:10:30;;;;;;;8.18;3.05;;;26.70;82.00;;;;;;5005048;28;20407;-75
2022/06/20 14:13:01;;;;;;;5.80;3.38;;;26.60;83.90;;;;;;5002649;28;20034;-74
2022/06/20 14:15:34;;;;;;;3.92;3.00;;;26.40;83.10;;;;;;5008163;28;20044;-74
2022/06/20 14:18:25;;;;;;;4.78;3.17;;;26.10;86.10;;;;;;5006724;28;20114;-74
2022/06/20 14:20:59;;;;;;;5.53;2.90;;;25.30;86.00;;;;;;5008167;28;20057;-74
2022/06/20 14:23:25;;;;;;;6.05;3.05;;;25.00;87.50;;;;;;5011162;28;20146;-74
2022/06/20 14:25:54;;;;;;;5.50;3.00;;;24.90;87.60;;;;;;5007417;28;20056;-74
2022/06/20 14:28:46;;;;;;;5.30;2.95;;;24.60;88.70;;;;;;5008981;28;20069;-74
2022/06/20 14:31:38;;;;;;;5.15;3.00;;;24.30;90.10;;;;;;5010479;28;20031;-75
2022/06/20 14:34:13;;;;;;;5.72;2.83;;;24.40;90.10;;;;;;5007243;28;20039;-74
2022/06/20 14:36:51;;;;;;;3.50;2.95;;;24.40;90.40;;;;;;5011542;28;20038;-74
2022/06/20 14:39:31;;;;;;;5.82;3.05;;;24.70;88.20;;;;;;5009648;28;20038;-74
2022/06/20 14:42:05;;;;;;;3.42;2.70;;;24.70;89.20;;;;;;5009787;28;20105;-74
2022/06/20 14:44:39;;;;;;;5.82;2.65;;;24.90;88.40;;;;;;5008126;28;20030;-74
2022/06/20 14:47:14;;;;;;;3.95;2.50;;;25.10;86.80;;;;;;5006939;28;20037;-74
2022/06/20 14:50:00;;;;;;;3.25;2.70;;;25.50;86.00;;;;;;5010630;28;20034;-74
2022/06/20 14:52:40;;;;;;;4.38;2.60;;;25.30;86.10;;;;;;5007973;28;20026;-74
2022/06/20 14:55:20;;;;;;;3.58;2.53;;;25.40;86.10;;;;;;5008731;28;20037;-74
2022/06/20 14:58:02;;;;;;;3.88;2.55;;;25.80;84.20;;;;;;5009896;28;20076;-75
2022/06/20 15:00:36;;;;;;;4.90;2.63;;;26.20;84.70;;;;;;5009047;28;20116;-74
2022/06/20 15:03:28;;;;;;;4.10;2.20;;;28.10;79.60;;;;;;5007100;28;20054;-75
2022/06/20 15:06:10;;;;;;;4.93;2.33;;;29.70;75.30;;;;;;5009565;28;20070;-76
2022/06/20 15:08:49;;;;;;;2.15;1.83;;;30.20;73.90;;;;;;5009541;28;20527;-75
2022/06/20 15:11:46;;;;;;;2.20;2.00;;;32.50;68.50;;;;;;5008691;28;20043;-75
2022/06/20 15:14:34;;;;;;;2.65;2.00;;;34.40;60.30;;;;;;5007993;28;20035;-75
2022/06/20 15:17:13;;;;;;;2.15;1.88;;;35.30;58.10;;;;;;5008528;28;20023;-75
2022/06/20 15:19:54;;;;;;;3.10;2.05;;;35.40;56.80;;;;;;5011120;28;20038;-76
2022/06/20 15:22:28;;;;;;;4.90;2.28;;;34.70;56.20;;;;;;5009523;28;20042;-75
2022/06/20 15:25:08;;;;;;;2.50;2.00;;;31.50;62.20;;;;;;5008552;28;20487;-75
2022/06/20 15:27:39;;;;;;;2.38;2.00;;;29.60;68.50;;;;;;5008135;28;20030;-75
2022/06/20 15:30:20;;;;;;;3.17;2.05;;;28.70;73.60;;;;;;5011458;28;20038;-75
2022/06/20 15:32:47;;;;;;;5.07;2.35;;;27.70;73.20;;;;;;5006727;28;20072;-75
2022/06/20 15:38:15;;;;;;;3.08;1.88;;;27.10;76.20;;;;;;5006321;28;20077;-75
2022/06/20 15:40:48;;;;;;;3.47;1.85;;;27.30;77.80;;;;;;5007110;28;20161;-75
2022/06/20 15:43:42;;;;;;;3.25;1.80;;;27.30;76.60;;;;;;5007088;28;20145;-77
2022/06/20 15:46:22;;;;;;;2.33;1.70;;;26.00;79.50;;;;;;5008023;28;20042;-75
2022/06/20 15:48:48;;;;;;;3.38;1.85;;;25.30;82.60;;;;;;5009393;28;20065;-72
2022/06/20 15:51:22;;;;;;;1.70;1.60;;;24.50;84.40;;;;;;5008319;28;20154;-73
2022/06/20 15:54:05;;;;;;;2.33;1.60;;;24.30;86.70;;;;;;5008515;28;20045;-72
2022/06/20 15:57:19;;;;;;;3.53;1.58;;;24.00;86.50;;;;;;5007386;28;20129;-75
2022/06/20 16:00:12;;;;;;;2.05;1.63;;;24.30;86.90;;;;;;5007009;28;20118;-77
2022/06/20 16:02:40;;;;;;;2.03;1.50;;;25.80;83.40;;;;;;5007546;28;20097;-74
2022/06/20 16:05:47;;;;;;;2.25;1.52;;;27.40;81.40;;;;;;5007272;28;20030;-73
2022/06/20 16:08:32;;;;;;;3.80;1.65;;;28.40;75.50;;;;;;5008142;28;20412;-73
2022/06/20 16:11:13;;;;;;;3.22;1.77;;;27.90;76.90;;;;;;5007492;28;20035;-72
2022/06/20 16:13:45;;;;;;;1.50;1.30;;;29.40;72.40;;;;;;5006172;28;20057;-73
2022/06/20 16:16:15;;;;;;;2.65;1.40;;;32.30;65.70;;;;;;5017157;23;20113;-74
2022/06/20 16:18:47;;;;;;;1.73;1.55;;;34.00;61.10;;;;;;4988632;28;20120;-74
2022/06/20 16:21:29;;;;;;;3.20;1.60;;;35.30;57.10;;;;;;4986752;28;20066;-74
2022/06/20 16:23:58;;;;;;;2.47;1.25;;;33.20;59.60;;;;;;4986323;28;20039;-74
2022/06/20 16:26:24;;;;;;;2.00;1.65;;;30.50;64.80;;;;;;4987069;28;20397;-74
2022/06/20 16:29:25;;;;;;;2.08;1.50;;;28.30;69.40;;;;;;4987822;28;20096;-74
2022/06/20 16:31:59;;;;;;;3.33;1.80;;;26.60;75.80;;;;;;4988108;28;20037;-74
2022/06/20 16:34:35;;;;;;;2.45;1.80;;;25.60;79.20;;;;;;4986052;28;20386;-74
2022/06/20 16:37:06;;;;;;;4.13;1.85;;;25.10;81.30;;;;;;4985653;28;20050;-74
2022/06/20 16:39:32;;;;;;;2.28;1.83;;;24.80;82.90;;;;;;4984254;28;20042;-74
2022/06/20 16:42:04;;;;;;;3.58;1.70;;;24.60;83.90;;;;;;4989932;28;20665;-74
2022/06/20 16:44:51;;;;;;;2.03;1.70;;;24.10;84.20;;;;;;4991583;28;20043;-73
2022/06/20 16:47:38;;;;;;;2.88;1.88;;;23.50;86.00;;;;;;4989009;28;20037;-73
2022/06/20 16:50:28;;;;;;;3.25;2.38;;;23.10;87.40;;;;;;4987884;28;20117;-73
2022/06/20 16:53:10;;;;;;;3.25;2.20;;;22.80;89.60;;;;;;4986679;28;20125;-74
2022/06/20 16:55:53;;;;;;;3.75;1.92;;;22.60;90.40;;;;;;4989262;28;20035;-73
2022/06/20 16:58:41;;;;;;;3.47;2.00;;;22.30;90.10;;;;;;4988875;28;20543;-73
2022/06/20 17:01:19;;;;;;;1.70;1.52;;;22.20;90.60;;;;;;4988169;28;20493;-73
2022/06/20 17:03:53;;;;;;;2.08;1.80;;;22.10;90.90;;;;;;4988370;28;20492;-73
2022/06/20 17:06:34;;;;;;;2.28;2.08;;;22.10;90.10;;;;;;4987266;28;20542;-74
2022/06/20 17:09:26;;;;;;;3.22;1.52;;;22.00;90.70;;;;;;4988310;28;20046;-73
2022/06/20 17:12:22;;;;;;;1.98;1.77;;;21.90;90.90;;;;;;4987967;28;20051;-73
2022/06/20 17:15:13;;;;;;;2.17;1.95;;;22.10;91.00;;;;;;4987286;28;20039;-74
2022/06/20 17:17:48;;;;;;;1.77;1.58;;;22.20;90.80;;;;;;4985955;28;20066;-73
2022/06/20 17:20:43;;;;;;;2.10;1.90;;;22.00;90.50;;;;;;4987525;28;20035;-73
2022/06/20 17:23:38;;;;;;;3.08;1.42;;;21.70;90.90;;;;;;4973012;28;20126;-73
2022/06/20 17:26:41;;;;;;;2.67;1.60;;;21.50;91.00;;;;;;4988664;28;20039;-73
2022/06/20 17:29:55;;;;;;;2.78;1.65;;;21.20;91.30;;;;;;4988174;28;20043;-73
2022/06/20 17:32:41;;;;;;;1.50;1.40;;;21.20;91.40;;;;;;4987569;28;20027;-73
2022/06/20 17:35:16;;;;;;;2.45;1.40;;;21.10;91.30;;;;;;4988877;28;20548;-73
2022/06/20 17:37:59;;;;;;;1.48;1.38;;;21.10;91.50;;;;;;4986515;28;20090;-73
2022/06/20 17:40:44;;;;;;;1.92;1.83;;;21.00;91.10;;;;;;4986897;28;20039;-73
2022/06/20 17:43:19;;;;;;;1.67;1.58;;;20.90;91.30;;;;;;4985703;28;21125;-73
2022/06/20 17:46:03;;;;;;;1.77;1.67;;;20.80;91.60;;;;;;4984361;28;20039;-74
2022/06/20 17:48:53;;;;;;;1.45;1.33;;;20.80;91.80;;;;;;4986727;28;20041;-73
2022/06/20 17:51:42;;;;;;;2.60;1.50;;;20.80;91.50;;;;;;4985644;28;20090;-73
2022/06/20 17:54:13;;;;;;;1.52;1.23;;;20.50;91.80;;;;;;4988052;28;20031;-73
2022/06/20 17:57:02;;;;;;;1.52;1.40;;;20.40;92.20;;;;;;4990466;28;20146;-73
2022/06/20 17:59:36;;;;;;;3.25;1.75;;;20.40;91.70;;;;;;4991302;28;20088;-73
2022/06/20 18:02:14;;;;;;;2.42;1.38;;;20.40;91.80;;;;;;4992063;28;20035;-74
2022/06/20 18:04:51;;;;;;;1.75;1.40;;;20.20;91.80;;;;;;4991537;28;20035;-76
2022/06/20 18:07:22;;;;;;;1.88;1.20;;;20.30;91.60;;;;;;4989628;28;20031;-76